sensor_id;sensor_type;location;lat;lon;timestamp;temperature;humidity
14741;DHT22;7462;53.530;9.414;2022-10-16T00:01:23;13.60;99.90
14741;DHT22;7462;53.530;9.414;2022-10-16T00:03:52;13.60;99.90
14741;DHT22;7462;53.530;9.414;2022-10-16T00:06:21;13.60;99.90
14741;DHT22;7462;53.530;9.414;2022-10-16T00:08:49;13.60;99.90
14741;DHT22;7462;53.530;9.414;2022-10-16T00:11:21;13.50;99.90
14741;DHT22;7462;53.530;9.414;2022-10-16T00:13:51;13.50;99.90
14741;DHT22;7462;53.530;9.414;2022-10-16T00:16:20;13.50;99.90
14741;DHT22;7462;53.530;9.414;2022-10-16T00:18:48;13.50;99.90
14741;DHT22;7462;53.530;9.414;2022-10-16T00:21:18;13.50;99.90
14741;DHT22;7462;53.530;9.414;2022-10-16T00:23:49;13.50;99.90
14741;DHT22;7462;53.530;9.414;2022-10-16T00:26:18;13.60;99.90
14741;DHT22;7462;53.530;9.414;2022-10-16T00:28:48;13.60;99.90
14741;DHT22;7462;53.530;9.414;2022-10-16T00:31:18;13.60;99.90
14741;DHT22;7462;53.530;9.414;2022-10-16T00:33:47;13.50;99.90
14741;DHT22;7462;53.530;9.414;2022-10-16T00:36:17;13.50;99.90
14741;DHT22;7462;53.530;9.414;2022-10-16T00:38:46;13.50;99.90
14741;DHT22;7462;53.530;9.414;2022-10-16T00:41:16;13.50;99.90
14741;DHT22;7462;53.530;9.414;2022-10-16T00:43:47;13.40;99.90
14741;DHT22;7462;53.530;9.414;2022-10-16T00:46:18;13.40;99.90
14741;DHT22;7462;53.530;9.414;2022-10-16T00:48:51;13.40;99.90
14741;DHT22;7462;53.530;9.414;2022-10-16T00:51:23;13.40;99.90
14741;DHT22;7462;53.530;9.414;2022-10-16T00:53:54;13.30;99.90
14741;DHT22;7462;53.530;9.414;2022-10-16T00:56:22;13.30;99.90
14741;DHT22;7462;53.530;9.414;2022-10-16T00:58:52;13.30;99.90
14741;DHT22;7462;53.530;9.414;2022-10-16T01:01:20;13.30;99.90
14741;DHT22;7462;53.530;9.414;2022-10-16T01:03:49;13.20;99.90
14741;DHT22;7462;53.530;9.414;2022-10-16T01:06:23;13.20;99.90
14741;DHT22;7462;53.530;9.414;2022-10-16T01:09:02;13.20;99.90
14741;DHT22;7462;53.530;9.414;2022-10-16T01:11:41;13.10;99.90
14741;DHT22;7462;53.530;9.414;2022-10-16T01:14:20;13.10;99.90
14741;DHT22;7462;53.530;9.414;2022-10-16T01:16:55;13.10;99.90
14741;DHT22;7462;53.530;9.414;2022-10-16T01:19:36;13.10;99.90
14741;DHT22;7462;53.530;9.414;2022-10-16T01:22:09;13.10;99.90
14741;DHT22;7462;53.530;9.414;2022-10-16T01:24:40;13.00;99.90
14741;DHT22;7462;53.530;9.414;2022-10-16T01:27:11;13.00;99.90
14741;DHT22;7462;53.530;9.414;2022-10-16T01:29:45;13.00;99.90
14741;DHT22;7462;53.530;9.414;2022-10-16T01:32:19;13.00;99.90
14741;DHT22;7462;53.530;9.414;2022-10-16T01:34:52;13.00;99.90
14741;DHT22;7462;53.530;9.414;2022-10-16T01:37:25;12.90;99.90
14741;DHT22;7462;53.530;9.414;2022-10-16T01:39:59;12.90;99.90
14741;DHT22;7462;53.530;9.414;2022-10-16T01:42:33;12.90;99.90
14741;DHT22;7462;53.530;9.414;2022-10-16T01:45:05;12.90;99.90
14741;DHT22;7462;53.530;9.414;2022-10-16T01:47:35;12.90;99.90
14741;DHT22;7462;53.530;9.414;2022-10-16T01:50:05;12.90;99.90
14741;DHT22;7462;53.530;9.414;2022-10-16T01:52:36;12.90;99.90
14741;DHT22;7462;53.530;9.414;2022-10-16T01:55:07;12.80;99.90
14741;DHT22;7462;53.530;9.414;2022-10-16T01:57:41;12.80;99.90
14741;DHT22;7462;53.530;9.414;2022-10-16T02:00:12;12.80;99.90
14741;DHT22;7462;53.530;9.414;2022-10-16T02:02:45;12.80;99.90
14741;DHT22;7462;53.530;9.414;2022-10-16T02:05:20;12.80;99.90
14741;DHT22;7462;53.530;9.414;2022-10-16T02:07:50;12.70;99.90
14741;DHT22;7462;53.530;9.414;2022-10-16T02:10:18;12.70;99.90
14741;DHT22;7462;53.530;9.414;2022-10-16T02:12:50;12.70;99.90
14741;DHT22;7462;53.530;9.414;2022-10-16T02:15:23;12.70;99.90
14741;DHT22;7462;53.530;9.414;2022-10-16T02:17:51;12.70;99.90
14741;DHT22;7462;53.530;9.414;2022-10-16T02:20:22;12.70;99.90
14741;DHT22;7462;53.530;9.414;2022-10-16T02:22:54;12.70;99.90
14741;DHT22;7462;53.530;9.414;2022-10-16T02:25:27;12.70;99.90
14741;DHT22;7462;53.530;9.414;2022-10-16T02:28:02;12.70;99.90
14741;DHT22;7462;53.530;9.414;2022-10-16T02:30:34;12.60;99.90
14741;DHT22;7462;53.530;9.414;2022-10-16T02:33:06;12.60;99.90
14741;DHT22;7462;53.530;9.414;2022-10-16T02:35:36;12.60;99.90
14741;DHT22;7462;53.530;9.414;2022-10-16T02:38:05;12.60;99.90
14741;DHT22;7462;53.530;9.414;2022-10-16T02:40:34;12.60;99.90
14741;DHT22;7462;53.530;9.414;2022-10-16T02:43:04;12.60;99.90
14741;DHT22;7462;53.530;9.414;2022-10-16T02:45:32;12.60;99.90
14741;DHT22;7462;53.530;9.414;2022-10-16T02:48:00;12.60;99.90
14741;DHT22;7462;53.530;9.414;2022-10-16T02:50:28;12.60;99.90
14741;DHT22;7462;53.530;9.414;2022-10-16T02:52:57;12.50;99.90
14741;DHT22;7462;53.530;9.414;2022-10-16T02:55:25;12.50;99.90
14741;DHT22;7462;53.530;9.414;2022-10-16T02:57:54;12.60;99.90
14741;DHT22;7462;53.530;9.414;2022-10-16T03:00:24;12.50;99.90
14741;DHT22;7462;53.530;9.414;2022-10-16T03:02:52;12.50;99.90
14741;DHT22;7462;53.530;9.414;2022-10-16T03:05:20;12.50;99.90
14741;DHT22;7462;53.530;9.414;2022-10-16T03:07:53;12.40;99.90
14741;DHT22;7462;53.530;9.414;2022-10-16T03:10:21;12.50;99.90
14741;DHT22;7462;53.530;9.414;2022-10-16T03:12:49;12.50;99.90
14741;DHT22;7462;53.530;9.414;2022-10-16T03:15:17;12.40;99.90
14741;DHT22;7462;53.530;9.414;2022-10-16T03:17:47;12.40;99.90
14741;DHT22;7462;53.530;9.414;2022-10-16T03:20:15;12.40;99.90
14741;DHT22;7462;53.530;9.414;2022-10-16T03:22:43;12.40;99.90
14741;DHT22;7462;53.530;9.414;2022-10-16T03:25:11;12.40;99.90
14741;DHT22;7462;53.530;9.414;2022-10-16T03:27:39;12.40;99.90
14741;DHT22;7462;53.530;9.414;2022-10-16T03:30:08;12.40;99.90
14741;DHT22;7462;53.530;9.414;2022-10-16T03:32:36;12.40;99.90
14741;DHT22;7462;53.530;9.414;2022-10-16T03:35:07;12.30;99.90
14741;DHT22;7462;53.530;9.414;2022-10-16T03:37:35;12.30;99.90
14741;DHT22;7462;53.530;9.414;2022-10-16T03:40:04;12.30;99.90
14741;DHT22;7462;53.530;9.414;2022-10-16T03:42:32;12.30;99.90
14741;DHT22;7462;53.530;9.414;2022-10-16T03:45:00;12.30;99.90
14741;DHT22;7462;53.530;9.414;2022-10-16T03:47:28;12.30;99.90
14741;DHT22;7462;53.530;9.414;2022-10-16T03:49:57;12.40;99.90
14741;DHT22;7462;53.530;9.414;2022-10-16T03:52:26;12.30;99.90
14741;DHT22;7462;53.530;9.414;2022-10-16T03:54:55;12.30;99.90
14741;DHT22;7462;53.530;9.414;2022-10-16T03:57:23;12.30;99.90
14741;DHT22;7462;53.530;9.414;2022-10-16T03:59:51;12.30;99.90
14741;DHT22;7462;53.530;9.414;2022-10-16T04:02:19;12.30;99.90
14741;DHT22;7462;53.530;9.414;2022-10-16T04:04:48;12.30;99.90
14741;DHT22;7462;53.530;9.414;2022-10-16T04:07:16;12.30;99.90
14741;DHT22;7462;53.530;9.414;2022-10-16T04:09:45;12.30;99.90
14741;DHT22;7462;53.530;9.414;2022-10-16T04:12:13;12.30;99.90
14741;DHT22;7462;53.530;9.414;2022-10-16T04:14:41;12.30;99.90
14741;DHT22;7462;53.530;9.414;2022-10-16T04:17:09;12.30;99.90
14741;DHT22;7462;53.530;9.414;2022-10-16T04:19:37;12.30;99.90
14741;DHT22;7462;53.530;9.414;2022-10-16T04:22:05;12.30;99.90
14741;DHT22;7462;53.530;9.414;2022-10-16T04:24:33;12.30;99.90
14741;DHT22;7462;53.530;9.414;2022-10-16T04:27:03;12.30;99.90
14741;DHT22;7462;53.530;9.414;2022-10-16T04:29:31;12.30;99.90
14741;DHT22;7462;53.530;9.414;2022-10-16T04:31:59;12.30;99.90
14741;DHT22;7462;53.530;9.414;2022-10-16T04:34:27;12.30;99.90
14741;DHT22;7462;53.530;9.414;2022-10-16T04:36:55;12.30;99.90
14741;DHT22;7462;53.530;9.414;2022-10-16T04:39:23;12.30;99.90
14741;DHT22;7462;53.530;9.414;2022-10-16T04:41:51;12.30;99.90
14741;DHT22;7462;53.530;9.414;2022-10-16T04:44:21;12.30;99.90
14741;DHT22;7462;53.530;9.414;2022-10-16T04:46:50;12.30;99.90
14741;DHT22;7462;53.530;9.414;2022-10-16T04:49:18;12.30;99.90
14741;DHT22;7462;53.530;9.414;2022-10-16T04:51:46;12.30;99.90
14741;DHT22;7462;53.530;9.414;2022-10-16T04:54:14;12.30;99.90
14741;DHT22;7462;53.530;9.414;2022-10-16T04:56:42;12.30;99.90
14741;DHT22;7462;53.530;9.414;2022-10-16T04:59:14;12.40;99.90
14741;DHT22;7462;53.530;9.414;2022-10-16T05:01:43;12.40;99.90
14741;DHT22;7462;53.530;9.414;2022-10-16T05:04:12;12.50;99.90
14741;DHT22;7462;53.530;9.414;2022-10-16T05:06:42;12.50;99.90
14741;DHT22;7462;53.530;9.414;2022-10-16T05:09:10;12.50;99.90
14741;DHT22;7462;53.530;9.414;2022-10-16T05:11:38;12.50;99.90
14741;DHT22;7462;53.530;9.414;2022-10-16T05:14:06;12.50;99.90
14741;DHT22;7462;53.530;9.414;2022-10-16T05:16:34;12.40;99.90
14741;DHT22;7462;53.530;9.414;2022-10-16T05:19:04;12.40;99.90
14741;DHT22;7462;53.530;9.414;2022-10-16T05:21:51;12.40;99.90
14741;DHT22;7462;53.530;9.414;2022-10-16T05:24:20;12.50;99.90
14741;DHT22;7462;53.530;9.414;2022-10-16T05:26:48;12.50;99.90
14741;DHT22;7462;53.530;9.414;2022-10-16T05:29:16;12.50;99.90
14741;DHT22;7462;53.530;9.414;2022-10-16T05:31:44;12.50;99.90
14741;DHT22;7462;53.530;9.414;2022-10-16T05:34:13;12.50;99.90
14741;DHT22;7462;53.530;9.414;2022-10-16T05:36:41;12.50;99.90
14741;DHT22;7462;53.530;9.414;2022-10-16T05:39:11;12.60;99.90
14741;DHT22;7462;53.530;9.414;2022-10-16T05:41:41;12.60;99.90
14741;DHT22;7462;53.530;9.414;2022-10-16T05:44:09;12.60;99.90
14741;DHT22;7462;53.530;9.414;2022-10-16T05:46:37;12.60;99.90
14741;DHT22;7462;53.530;9.414;2022-10-16T05:49:05;12.60;99.90
14741;DHT22;7462;53.530;9.414;2022-10-16T05:51:35;12.60;99.90
14741;DHT22;7462;53.530;9.414;2022-10-16T05:54:03;12.60;99.90
14741;DHT22;7462;53.530;9.414;2022-10-16T05:56:31;12.60;99.90
14741;DHT22;7462;53.530;9.414;2022-10-16T05:58:59;12.60;99.90
14741;DHT22;7462;53.530;9.414;2022-10-16T06:01:27;12.60;99.90
14741;DHT22;7462;53.530;9.414;2022-10-16T06:03:55;12.60;99.90
14741;DHT22;7462;53.530;9.414;2022-10-16T06:06:25;12.60;99.90
14741;DHT22;7462;53.530;9.414;2022-10-16T06:08:56;12.60;99.90
14741;DHT22;7462;53.530;9.414;2022-10-16T06:11:28;12.60;99.90
14741;DHT22;7462;53.530;9.414;2022-10-16T06:13:58;12.60;99.90
14741;DHT22;7462;53.530;9.414;2022-10-16T06:16:28;12.60;99.90
14741;DHT22;7462;53.530;9.414;2022-10-16T06:18:56;12.60;99.90
14741;DHT22;7462;53.530;9.414;2022-10-16T06:21:27;12.70;99.90
14741;DHT22;7462;53.530;9.414;2022-10-16T06:23:57;12.70;99.90
14741;DHT22;7462;53.530;9.414;2022-10-16T06:26:27;12.60;99.90
14741;DHT22;7462;53.530;9.414;2022-10-16T06:28:57;12.60;99.90
14741;DHT22;7462;53.530;9.414;2022-10-16T06:31:26;12.70;99.90
14741;DHT22;7462;53.530;9.414;2022-10-16T06:33:57;12.70;99.90
14741;DHT22;7462;53.530;9.414;2022-10-16T06:36:26;12.70;99.90
14741;DHT22;7462;53.530;9.414;2022-10-16T06:38:54;12.70;99.90
14741;DHT22;7462;53.530;9.414;2022-10-16T06:41:24;12.80;99.90
14741;DHT22;7462;53.530;9.414;2022-10-16T06:43:52;12.80;99.90
14741;DHT22;7462;53.530;9.414;2022-10-16T06:46:22;12.90;99.90
14741;DHT22;7462;53.530;9.414;2022-10-16T06:48:50;13.00;99.90
14741;DHT22;7462;53.530;9.414;2022-10-16T06:51:20;13.00;99.90
14741;DHT22;7462;53.530;9.414;2022-10-16T06:53:50;13.00;99.90
14741;DHT22;7462;53.530;9.414;2022-10-16T06:56:35;13.00;99.90
14741;DHT22;7462;53.530;9.414;2022-10-16T06:59:04;13.00;99.90
14741;DHT22;7462;53.530;9.414;2022-10-16T07:01:32;13.00;99.90
14741;DHT22;7462;53.530;9.414;2022-10-16T07:04:01;13.00;99.90
14741;DHT22;7462;53.530;9.414;2022-10-16T07:06:32;13.00;99.90
14741;DHT22;7462;53.530;9.414;2022-10-16T07:09:03;13.10;99.90
14741;DHT22;7462;53.530;9.414;2022-10-16T07:11:32;13.20;99.90
14741;DHT22;7462;53.530;9.414;2022-10-16T07:14:02;13.40;99.90
14741;DHT22;7462;53.530;9.414;2022-10-16T07:16:32;13.50;99.90
14741;DHT22;7462;53.530;9.414;2022-10-16T07:19:02;13.60;99.90
14741;DHT22;7462;53.530;9.414;2022-10-16T07:21:32;13.70;99.90
14741;DHT22;7462;53.530;9.414;2022-10-16T07:24:04;13.80;99.90
14741;DHT22;7462;53.530;9.414;2022-10-16T07:26:35;14.00;99.90
14741;DHT22;7462;53.530;9.414;2022-10-16T07:29:04;14.00;99.90
14741;DHT22;7462;53.530;9.414;2022-10-16T07:31:33;14.00;99.90
14741;DHT22;7462;53.530;9.414;2022-10-16T07:34:01;14.20;99.90
14741;DHT22;7462;53.530;9.414;2022-10-16T07:36:29;14.20;99.90
14741;DHT22;7462;53.530;9.414;2022-10-16T07:38:57;14.30;99.90
14741;DHT22;7462;53.530;9.414;2022-10-16T07:41:27;14.30;99.90
14741;DHT22;7462;53.530;9.414;2022-10-16T07:43:56;14.20;99.90
14741;DHT22;7462;53.530;9.414;2022-10-16T07:46:28;14.20;99.90
14741;DHT22;7462;53.530;9.414;2022-10-16T07:48:56;14.20;99.90
14741;DHT22;7462;53.530;9.414;2022-10-16T07:51:25;14.10;99.90
14741;DHT22;7462;53.530;9.414;2022-10-16T07:53:54;14.20;99.90
14741;DHT22;7462;53.530;9.414;2022-10-16T07:56:22;14.20;99.90
14741;DHT22;7462;53.530;9.414;2022-10-16T07:58:51;14.20;99.90
14741;DHT22;7462;53.530;9.414;2022-10-16T08:01:20;14.20;99.90
14741;DHT22;7462;53.530;9.414;2022-10-16T08:03:51;14.20;99.90
14741;DHT22;7462;53.530;9.414;2022-10-16T08:06:20;14.60;99.90
14741;DHT22;7462;53.530;9.414;2022-10-16T08:08:54;14.90;99.90
14741;DHT22;7462;53.530;9.414;2022-10-16T08:11:22;14.90;99.90
14741;DHT22;7462;53.530;9.414;2022-10-16T08:13:51;14.90;99.90
14741;DHT22;7462;53.530;9.414;2022-10-16T08:16:19;15.00;99.90
14741;DHT22;7462;53.530;9.414;2022-10-16T08:18:49;15.30;99.90
14741;DHT22;7462;53.530;9.414;2022-10-16T08:21:19;15.50;99.90
14741;DHT22;7462;53.530;9.414;2022-10-16T08:23:48;15.60;99.90
14741;DHT22;7462;53.530;9.414;2022-10-16T08:26:23;15.80;99.90
14741;DHT22;7462;53.530;9.414;2022-10-16T08:28:51;15.80;99.90
14741;DHT22;7462;53.530;9.414;2022-10-16T08:31:19;15.80;99.90
14741;DHT22;7462;53.530;9.414;2022-10-16T08:33:49;15.70;99.90
14741;DHT22;7462;53.530;9.414;2022-10-16T08:36:18;15.70;99.90
14741;DHT22;7462;53.530;9.414;2022-10-16T08:38:48;15.70;99.90
14741;DHT22;7462;53.530;9.414;2022-10-16T08:41:46;15.80;99.90
14741;DHT22;7462;53.530;9.414;2022-10-16T08:47:16;16.10;99.90
14741;DHT22;7462;53.530;9.414;2022-10-16T08:49:55;16.40;99.90
14741;DHT22;7462;53.530;9.414;2022-10-16T08:52:28;16.40;99.90
14741;DHT22;7462;53.530;9.414;2022-10-16T08:54:56;16.50;99.90
14741;DHT22;7462;53.530;9.414;2022-10-16T08:57:25;16.70;99.90
14741;DHT22;7462;53.530;9.414;2022-10-16T08:59:54;16.90;99.90
14741;DHT22;7462;53.530;9.414;2022-10-16T09:02:31;17.00;99.90
14741;DHT22;7462;53.530;9.414;2022-10-16T09:05:22;17.00;99.90
14741;DHT22;7462;53.530;9.414;2022-10-16T09:07:59;17.20;99.90
14741;DHT22;7462;53.530;9.414;2022-10-16T09:10:41;17.20;99.90
14741;DHT22;7462;53.530;9.414;2022-10-16T09:13:19;17.20;99.90
14741;DHT22;7462;53.530;9.414;2022-10-16T09:15:54;17.50;99.90
14741;DHT22;7462;53.530;9.414;2022-10-16T09:18:27;17.60;99.90
14741;DHT22;7462;53.530;9.414;2022-10-16T09:21:06;17.30;99.90
14741;DHT22;7462;53.530;9.414;2022-10-16T09:23:37;17.10;99.90
14741;DHT22;7462;53.530;9.414;2022-10-16T09:26:10;17.10;99.90
14741;DHT22;7462;53.530;9.414;2022-10-16T09:28:39;17.20;99.90
14741;DHT22;7462;53.530;9.414;2022-10-16T09:31:15;17.40;99.90
14741;DHT22;7462;53.530;9.414;2022-10-16T09:33:47;17.50;99.90
14741;DHT22;7462;53.530;9.414;2022-10-16T09:36:18;17.60;99.90
14741;DHT22;7462;53.530;9.414;2022-10-16T09:38:47;17.70;99.90
14741;DHT22;7462;53.530;9.414;2022-10-16T09:41:21;17.80;99.90
14741;DHT22;7462;53.530;9.414;2022-10-16T09:43:53;17.80;99.90
14741;DHT22;7462;53.530;9.414;2022-10-16T09:46:26;17.80;99.90
14741;DHT22;7462;53.530;9.414;2022-10-16T09:48:56;17.90;99.90
14741;DHT22;7462;53.530;9.414;2022-10-16T09:51:28;18.00;99.90
14741;DHT22;7462;53.530;9.414;2022-10-16T09:53:59;17.90;99.90
14741;DHT22;7462;53.530;9.414;2022-10-16T09:56:29;17.90;99.90
14741;DHT22;7462;53.530;9.414;2022-10-16T09:58:58;17.80;99.90
14741;DHT22;7462;53.530;9.414;2022-10-16T10:01:30;17.70;99.90
14741;DHT22;7462;53.530;9.414;2022-10-16T10:03:59;17.80;99.90
14741;DHT22;7462;53.530;9.414;2022-10-16T10:06:33;17.90;99.90
14741;DHT22;7462;53.530;9.414;2022-10-16T10:09:06;18.00;99.90
14741;DHT22;7462;53.530;9.414;2022-10-16T10:11:51;18.00;99.90
14741;DHT22;7462;53.530;9.414;2022-10-16T10:14:22;17.90;99.90
14741;DHT22;7462;53.530;9.414;2022-10-16T10:16:52;17.80;99.90
14741;DHT22;7462;53.530;9.414;2022-10-16T10:19:22;17.80;99.90
14741;DHT22;7462;53.530;9.414;2022-10-16T10:21:57;17.70;99.90
14741;DHT22;7462;53.530;9.414;2022-10-16T10:24:25;17.80;99.90
14741;DHT22;7462;53.530;9.414;2022-10-16T10:27:00;17.80;99.90
14741;DHT22;7462;53.530;9.414;2022-10-16T10:29:42;17.70;99.90
14741;DHT22;7462;53.530;9.414;2022-10-16T10:32:21;17.70;99.90
14741;DHT22;7462;53.530;9.414;2022-10-16T10:35:06;17.60;99.90
14741;DHT22;7462;53.530;9.414;2022-10-16T10:37:51;17.50;99.90
14741;DHT22;7462;53.530;9.414;2022-10-16T10:40:30;17.70;99.90
14741;DHT22;7462;53.530;9.414;2022-10-16T10:43:06;18.10;99.90
14741;DHT22;7462;53.530;9.414;2022-10-16T10:45:42;18.40;99.90
14741;DHT22;7462;53.530;9.414;2022-10-16T10:51:13;18.70;99.90
14741;DHT22;7462;53.530;9.414;2022-10-16T10:53:47;18.80;99.90
14741;DHT22;7462;53.530;9.414;2022-10-16T10:56:27;18.90;99.90
14741;DHT22;7462;53.530;9.414;2022-10-16T10:59:16;18.90;99.90
14741;DHT22;7462;53.530;9.414;2022-10-16T11:01:55;19.10;99.90
14741;DHT22;7462;53.530;9.414;2022-10-16T11:04:43;19.20;99.90
14741;DHT22;7462;53.530;9.414;2022-10-16T11:07:18;18.90;99.90
14741;DHT22;7462;53.530;9.414;2022-10-16T11:09:52;18.60;99.90
14741;DHT22;7462;53.530;9.414;2022-10-16T11:12:24;18.30;99.90
14741;DHT22;7462;53.530;9.414;2022-10-16T11:14:58;18.30;99.90
14741;DHT22;7462;53.530;9.414;2022-10-16T11:17:31;18.20;99.90
14741;DHT22;7462;53.530;9.414;2022-10-16T11:20:10;18.30;99.90
14741;DHT22;7462;53.530;9.414;2022-10-16T11:22:43;18.60;99.90
14741;DHT22;7462;53.530;9.414;2022-10-16T11:25:18;18.80;99.90
14741;DHT22;7462;53.530;9.414;2022-10-16T11:27:52;19.30;99.90
14741;DHT22;7462;53.530;9.414;2022-10-16T11:30:25;19.20;99.90
14741;DHT22;7462;53.530;9.414;2022-10-16T11:33:10;18.80;99.90
14741;DHT22;7462;53.530;9.414;2022-10-16T11:35:46;18.70;99.90
14741;DHT22;7462;53.530;9.414;2022-10-16T11:38:20;18.80;99.90
14741;DHT22;7462;53.530;9.414;2022-10-16T11:40:56;18.80;99.90
14741;DHT22;7462;53.530;9.414;2022-10-16T11:43:31;19.10;99.90
14741;DHT22;7462;53.530;9.414;2022-10-16T11:46:04;19.30;99.90
14741;DHT22;7462;53.530;9.414;2022-10-16T11:48:39;19.40;99.90
14741;DHT22;7462;53.530;9.414;2022-10-16T11:51:16;19.40;99.90
14741;DHT22;7462;53.530;9.414;2022-10-16T11:53:53;19.20;99.90
14741;DHT22;7462;53.530;9.414;2022-10-16T11:56:24;19.10;99.90
14741;DHT22;7462;53.530;9.414;2022-10-16T11:58:57;19.10;99.90
14741;DHT22;7462;53.530;9.414;2022-10-16T12:01:32;18.90;99.90
14741;DHT22;7462;53.530;9.414;2022-10-16T12:04:16;18.90;99.90
14741;DHT22;7462;53.530;9.414;2022-10-16T12:06:49;18.80;99.90
14741;DHT22;7462;53.530;9.414;2022-10-16T12:09:22;18.60;99.90
14741;DHT22;7462;53.530;9.414;2022-10-16T12:11:54;18.30;99.90
14741;DHT22;7462;53.530;9.414;2022-10-16T12:14:35;18.20;99.90
14741;DHT22;7462;53.530;9.414;2022-10-16T12:17:25;18.10;99.90
14741;DHT22;7462;53.530;9.414;2022-10-16T12:19:58;18.00;99.90
14741;DHT22;7462;53.530;9.414;2022-10-16T12:22:29;18.00;99.90
14741;DHT22;7462;53.530;9.414;2022-10-16T12:24:57;18.00;99.90
14741;DHT22;7462;53.530;9.414;2022-10-16T12:27:30;17.90;99.90
14741;DHT22;7462;53.530;9.414;2022-10-16T12:29:59;17.80;99.90
14741;DHT22;7462;53.530;9.414;2022-10-16T12:32:31;17.80;99.90
14741;DHT22;7462;53.530;9.414;2022-10-16T12:35:19;17.90;99.90
14741;DHT22;7462;53.530;9.414;2022-10-16T12:37:48;18.00;99.90
14741;DHT22;7462;53.530;9.414;2022-10-16T12:40:26;18.10;99.90
14741;DHT22;7462;53.530;9.414;2022-10-16T12:42:56;18.20;99.90
14741;DHT22;7462;53.530;9.414;2022-10-16T12:45:27;18.20;99.90
14741;DHT22;7462;53.530;9.414;2022-10-16T12:47:59;18.20;99.90
14741;DHT22;7462;53.530;9.414;2022-10-16T12:50:30;18.20;99.90
14741;DHT22;7462;53.530;9.414;2022-10-16T12:53:00;18.10;99.90
14741;DHT22;7462;53.530;9.414;2022-10-16T12:55:34;18.00;99.90
14741;DHT22;7462;53.530;9.414;2022-10-16T12:58:16;18.00;99.90
14741;DHT22;7462;53.530;9.414;2022-10-16T13:00:55;18.20;99.90
14741;DHT22;7462;53.530;9.414;2022-10-16T13:03:35;18.20;99.90
14741;DHT22;7462;53.530;9.414;2022-10-16T13:06:16;18.30;99.90
14741;DHT22;7462;53.530;9.414;2022-10-16T13:09:05;18.40;99.90
14741;DHT22;7462;53.530;9.414;2022-10-16T13:11:47;18.50;99.90
14741;DHT22;7462;53.530;9.414;2022-10-16T13:17:30;18.50;99.90
14741;DHT22;7462;53.530;9.414;2022-10-16T13:20:05;18.50;99.90
14741;DHT22;7462;53.530;9.414;2022-10-16T13:22:45;18.40;99.90
14741;DHT22;7462;53.530;9.414;2022-10-16T13:25:29;18.40;99.90
14741;DHT22;7462;53.530;9.414;2022-10-16T13:28:02;18.30;99.90
14741;DHT22;7462;53.530;9.414;2022-10-16T13:30:34;18.20;99.90
14741;DHT22;7462;53.530;9.414;2022-10-16T13:33:10;18.20;99.90
14741;DHT22;7462;53.530;9.414;2022-10-16T13:35:48;18.10;99.90
14741;DHT22;7462;53.530;9.414;2022-10-16T13:38:19;18.00;99.90
14741;DHT22;7462;53.530;9.414;2022-10-16T13:40:55;18.10;99.90
14741;DHT22;7462;53.530;9.414;2022-10-16T13:43:28;18.00;99.90
14741;DHT22;7462;53.530;9.414;2022-10-16T13:46:03;18.00;99.90
14741;DHT22;7462;53.530;9.414;2022-10-16T13:48:32;18.00;99.90
14741;DHT22;7462;53.530;9.414;2022-10-16T13:51:03;17.90;99.90
14741;DHT22;7462;53.530;9.414;2022-10-16T13:53:32;17.90;99.90
14741;DHT22;7462;53.530;9.414;2022-10-16T13:56:03;18.00;99.90
14741;DHT22;7462;53.530;9.414;2022-10-16T13:58:31;17.90;99.90
14741;DHT22;7462;53.530;9.414;2022-10-16T14:01:03;17.90;99.90
14741;DHT22;7462;53.530;9.414;2022-10-16T14:03:36;17.90;99.90
14741;DHT22;7462;53.530;9.414;2022-10-16T14:06:10;17.80;99.90
14741;DHT22;7462;53.530;9.414;2022-10-16T14:08:42;17.80;99.90
14741;DHT22;7462;53.530;9.414;2022-10-16T14:11:11;17.70;99.90
14741;DHT22;7462;53.530;9.414;2022-10-16T14:13:43;17.70;99.90
14741;DHT22;7462;53.530;9.414;2022-10-16T14:16:17;17.60;99.90
14741;DHT22;7462;53.530;9.414;2022-10-16T14:18:54;17.60;99.90
14741;DHT22;7462;53.530;9.414;2022-10-16T14:21:23;17.60;99.90
14741;DHT22;7462;53.530;9.414;2022-10-16T14:23:52;17.60;99.90
14741;DHT22;7462;53.530;9.414;2022-10-16T14:26:22;17.60;99.90
14741;DHT22;7462;53.530;9.414;2022-10-16T14:29:10;17.50;99.90
14741;DHT22;7462;53.530;9.414;2022-10-16T14:31:40;17.50;99.90
14741;DHT22;7462;53.530;9.414;2022-10-16T14:34:29;17.50;99.90
14741;DHT22;7462;53.530;9.414;2022-10-16T14:36:59;17.40;99.90
14741;DHT22;7462;53.530;9.414;2022-10-16T14:39:31;17.40;99.90
14741;DHT22;7462;53.530;9.414;2022-10-16T14:41:59;17.30;99.90
14741;DHT22;7462;53.530;9.414;2022-10-16T14:44:31;17.30;99.90
14741;DHT22;7462;53.530;9.414;2022-10-16T14:47:11;17.30;99.90
14741;DHT22;7462;53.530;9.414;2022-10-16T14:49:41;17.30;99.90
14741;DHT22;7462;53.530;9.414;2022-10-16T14:52:11;17.20;99.90
14741;DHT22;7462;53.530;9.414;2022-10-16T14:54:40;17.20;99.90
14741;DHT22;7462;53.530;9.414;2022-10-16T14:57:16;17.20;99.90
14741;DHT22;7462;53.530;9.414;2022-10-16T14:59:45;17.20;99.90
14741;DHT22;7462;53.530;9.414;2022-10-16T15:02:22;17.10;99.90
14741;DHT22;7462;53.530;9.414;2022-10-16T15:04:52;17.10;99.90
14741;DHT22;7462;53.530;9.414;2022-10-16T15:07:21;17.10;99.90
14741;DHT22;7462;53.530;9.414;2022-10-16T15:09:50;17.00;99.90
14741;DHT22;7462;53.530;9.414;2022-10-16T15:12:18;17.00;99.90
14741;DHT22;7462;53.530;9.414;2022-10-16T15:14:46;16.90;99.90
14741;DHT22;7462;53.530;9.414;2022-10-16T15:17:14;16.90;99.90
14741;DHT22;7462;53.530;9.414;2022-10-16T15:19:48;16.90;99.90
14741;DHT22;7462;53.530;9.414;2022-10-16T15:22:17;16.80;99.90
14741;DHT22;7462;53.530;9.414;2022-10-16T15:24:45;16.80;99.90
14741;DHT22;7462;53.530;9.414;2022-10-16T15:27:13;16.70;99.90
14741;DHT22;7462;53.530;9.414;2022-10-16T15:29:41;16.70;99.90
14741;DHT22;7462;53.530;9.414;2022-10-16T15:32:10;16.60;99.90
14741;DHT22;7462;53.530;9.414;2022-10-16T15:34:38;16.50;99.90
14741;DHT22;7462;53.530;9.414;2022-10-16T15:37:08;16.50;99.90
14741;DHT22;7462;53.530;9.414;2022-10-16T15:39:38;16.50;99.90
14741;DHT22;7462;53.530;9.414;2022-10-16T15:42:07;16.40;99.90
14741;DHT22;7462;53.530;9.414;2022-10-16T15:44:35;16.40;99.90
14741;DHT22;7462;53.530;9.414;2022-10-16T15:47:03;16.40;99.90
14741;DHT22;7462;53.530;9.414;2022-10-16T15:49:31;16.40;99.90
14741;DHT22;7462;53.530;9.414;2022-10-16T15:51:59;16.30;99.90
14741;DHT22;7462;53.530;9.414;2022-10-16T15:54:28;16.30;99.90
14741;DHT22;7462;53.530;9.414;2022-10-16T15:56:56;16.30;99.90
14741;DHT22;7462;53.530;9.414;2022-10-16T15:59:24;16.20;99.90
14741;DHT22;7462;53.530;9.414;2022-10-16T16:01:52;16.10;99.90
14741;DHT22;7462;53.530;9.414;2022-10-16T16:04:20;16.10;99.90
14741;DHT22;7462;53.530;9.414;2022-10-16T16:07:08;16.00;99.90
14741;DHT22;7462;53.530;9.414;2022-10-16T16:09:38;16.00;99.90
14741;DHT22;7462;53.530;9.414;2022-10-16T16:12:06;15.90;99.90
14741;DHT22;7462;53.530;9.414;2022-10-16T16:14:34;15.90;99.90
14741;DHT22;7462;53.530;9.414;2022-10-16T16:17:02;15.80;99.90
14741;DHT22;7462;53.530;9.414;2022-10-16T16:19:30;15.80;99.90
14741;DHT22;7462;53.530;9.414;2022-10-16T16:21:58;15.80;99.90